createdAt,value
2023-04-19T00:01:03.186Z,101650.50
2023-04-19T00:03:30.797Z,101646.94
2023-04-19T00:06:00.357Z,101646.47
2023-04-19T00:08:27.077Z,101639.63
2023-04-19T00:10:53.586Z,101633.88
2023-04-19T00:13:20.615Z,101638.94
2023-04-19T00:15:47.362Z,101622.97
2023-04-19T00:18:13.786Z,101621.38
2023-04-19T00:20:40.276Z,101617.19
2023-04-19T00:23:06.820Z,101620.75
2023-04-19T00:25:34.757Z,101616.88
2023-04-19T00:28:01.410Z,101616.22
2023-04-19T00:30:27.891Z,101615.75
2023-04-19T00:32:54.413Z,101619.97
2023-04-19T00:35:21.166Z,101608.94
2023-04-19T00:37:47.683Z,101605.38
2023-04-19T00:40:14.543Z,101602.78
2023-04-19T00:42:41.051Z,101600.22
2023-04-19T00:45:08.020Z,101594.72
2023-04-19T00:47:35.971Z,101599.25
2023-04-19T00:50:04.520Z,101593.75
2023-04-19T00:52:33.251Z,101594.56
2023-04-19T00:55:00.217Z,101597.34
2023-04-19T00:57:27.143Z,101582.72
2023-04-19T00:59:54.460Z,101593.75
2023-04-19T01:02:22.369Z,101589.91
2023-04-19T01:04:48.988Z,101588.44
2023-04-19T01:07:15.632Z,101586.03
2023-04-19T01:09:44.023Z,101583.25
2023-04-19T01:12:10.665Z,101578.06
2023-04-19T01:14:37.301Z,101580.00
2023-04-19T01:17:03.733Z,101571.91
2023-04-19T01:19:30.310Z,101571.91
2023-04-19T01:21:58.375Z,101559.41
2023-04-19T01:24:24.908Z,101563.47
2023-04-19T01:26:51.465Z,101567.69
2023-04-19T01:29:18.834Z,101568.50
2023-04-19T01:31:49.227Z,101556.66
2023-04-19T01:34:15.954Z,101553.56
2023-04-19T01:36:42.563Z,101564.09
2023-04-19T01:39:09.112Z,101556.00
2023-04-19T01:41:35.502Z,101555.19
2023-04-19T01:44:02.021Z,101551.25
2023-04-19T01:46:28.590Z,101559.16
2023-04-19T01:48:55.092Z,101569.97
2023-04-19T01:51:24.464Z,101561.81
2023-04-19T01:53:53.633Z,101556.13
2023-04-19T01:56:21.869Z,101553.59
2023-04-19T01:58:48.374Z,101549.31
2023-04-19T02:01:15.019Z,101555.13
2023-04-19T02:03:42.095Z,101549.19
2023-04-19T02:06:13.091Z,101552.63
2023-04-19T02:08:40.378Z,101568.06
2023-04-19T02:11:11.201Z,101553.94
2023-04-19T02:13:37.815Z,101559.47
2023-04-19T02:16:05.908Z,101560.66
2023-04-19T02:18:33.506Z,101556.41
2023-04-19T02:21:00.477Z,101554.69
2023-04-19T02:23:27.011Z,101553.50
2023-04-19T02:25:53.685Z,101548.25
2023-04-19T02:28:20.267Z,101557.41
2023-04-19T02:30:46.786Z,101552.00
2023-04-19T02:33:13.431Z,101545.50
2023-04-19T02:35:39.863Z,101535.25
2023-04-19T02:38:06.377Z,101549.09
2023-04-19T02:40:33.133Z,101543.56
2023-04-19T02:42:59.606Z,101547.53
2023-04-19T02:45:26.082Z,101549.19
2023-04-19T02:47:52.545Z,101532.22
2023-04-19T02:50:19.260Z,101539.06
2023-04-19T02:52:45.769Z,101529.44
2023-04-19T02:55:12.276Z,101526.78
2023-04-19T02:57:38.787Z,101528.28
2023-04-19T03:00:06.429Z,101526.25
2023-04-19T03:02:33.090Z,101515.69
2023-04-19T03:04:59.918Z,101515.97
2023-04-19T03:07:26.608Z,101508.00
2023-04-19T03:09:53.206Z,101510.72
2023-04-19T03:12:19.704Z,101514.81
2023-04-19T03:14:46.262Z,101504.25
2023-04-19T03:17:12.863Z,101502.34
2023-04-19T03:19:39.382Z,101503.88
2023-04-19T03:22:05.891Z,101499.66
2023-04-19T03:24:33.574Z,101501.72
2023-04-19T03:27:03.367Z,101498.88
2023-04-19T03:29:29.886Z,101498.34
2023-04-19T03:31:56.444Z,101494.00
2023-04-19T03:34:22.962Z,101490.22
2023-04-19T03:36:49.466Z,101494.97
2023-04-19T03:39:16.086Z,101492.66
2023-04-19T03:41:42.484Z,101490.47
2023-04-19T03:44:08.957Z,101488.03
2023-04-19T03:46:35.462Z,101480.06
2023-04-19T03:49:02.047Z,101485.75
2023-04-19T03:51:28.597Z,101479.22
2023-04-19T03:53:55.010Z,101481.94
2023-04-19T03:56:21.524Z,101471.78
2023-04-19T03:58:51.194Z,101474.50
2023-04-19T04:01:21.261Z,101469.06
2023-04-19T04:03:48.361Z,101463.75
2023-04-19T04:06:15.339Z,101462.81
2023-04-19T04:08:41.794Z,101456.56
2023-04-19T04:11:08.302Z,101458.19
2023-04-19T04:13:34.820Z,101453.03
2023-04-19T04:16:01.439Z,101448.38
2023-04-19T04:18:28.617Z,101453.53
2023-04-19T04:20:55.617Z,101456.34
2023-04-19T04:23:22.759Z,101445.84
2023-04-19T04:25:58.024Z,101450.16
2023-04-19T04:28:24.548Z,101448.47
2023-04-19T04:30:51.927Z,101449.53
2023-04-19T04:33:18.609Z,101443.38
2023-04-19T04:35:45.081Z,101447.16
2023-04-19T04:38:23.484Z,101448.06
2023-04-19T04:40:55.768Z,101439.22
2023-04-19T04:43:24.001Z,101436.88
2023-04-19T04:45:50.589Z,101440.34
2023-04-19T04:48:17.383Z,101434.72
2023-04-19T04:50:44.274Z,101452.53
2023-04-19T04:53:13.171Z,101439.16
2023-04-19T04:55:39.860Z,101438.34
2023-04-19T04:58:06.707Z,101441.44
2023-04-19T05:00:33.827Z,101441.97
2023-04-19T05:03:00.649Z,101427.63
2023-04-19T05:05:27.267Z,101427.34
2023-04-19T05:07:53.794Z,101426.22
2023-04-19T05:10:20.315Z,101435.97
2023-04-19T05:12:46.875Z,101431.09
2023-04-19T05:15:13.285Z,101429.28
2023-04-19T05:17:39.819Z,101424.19
2023-04-19T05:20:06.831Z,101421.09
2023-04-19T05:22:33.321Z,101420.19
2023-04-19T05:24:59.756Z,101420.63
2023-04-19T05:27:26.266Z,101421.16
2023-04-19T05:29:53.639Z,101420.78
2023-04-19T05:32:20.685Z,101407.50
2023-04-19T05:34:47.193Z,101423.56
2023-04-19T05:37:13.790Z,101414.06
2023-04-19T05:39:42.349Z,101418.38
2023-04-19T05:42:10.786Z,101414.72
2023-04-19T05:44:37.254Z,101417.97
2023-04-19T05:47:03.704Z,101411.13
2023-04-19T05:49:30.293Z,101408.06
2023-04-19T05:51:57.041Z,101409.22
2023-04-19T05:54:23.811Z,101405.81
2023-04-19T05:56:50.325Z,101399.31
2023-04-19T05:59:16.892Z,101398.81
2023-04-19T06:01:43.529Z,101412.13
2023-04-19T06:04:10.304Z,101399.66
2023-04-19T06:06:38.080Z,101410.50
2023-04-19T06:09:04.858Z,101401.06
2023-04-19T06:11:38.907Z,101402.31
2023-04-19T06:14:14.704Z,101397.22
2023-04-19T06:16:42.044Z,101401.63
2023-04-19T06:19:08.535Z,101406.94
2023-04-19T06:21:35.330Z,101402.28
2023-04-19T06:24:02.418Z,101396.91
2023-04-19T06:26:28.993Z,101405.19
2023-04-19T06:28:55.811Z,101406.31
2023-04-19T06:31:22.371Z,101414.38
2023-04-19T06:33:48.916Z,101402.88
2023-04-19T06:36:15.658Z,101412.75
2023-04-19T06:38:44.496Z,101410.78
2023-04-19T06:41:11.000Z,101416.09
2023-04-19T06:43:37.595Z,101418.00
2023-04-19T06:46:07.277Z,101404.38
2023-04-19T06:48:34.922Z,101415.00
2023-04-19T06:51:01.533Z,101402.81
2023-04-19T06:53:28.222Z,101412.81
2023-04-19T06:56:02.539Z,101407.44
2023-04-19T06:58:29.125Z,101404.41
2023-04-19T07:00:56.182Z,101404.66
2023-04-19T07:03:22.947Z,101399.31
2023-04-19T07:05:52.228Z,101404.63
2023-04-19T07:08:18.868Z,101395.34
2023-04-19T07:10:45.400Z,101392.06
2023-04-19T07:13:12.100Z,101388.81
2023-04-19T07:15:38.623Z,101390.94
2023-04-19T07:18:05.556Z,101399.69
2023-04-19T07:20:32.276Z,101386.28
2023-04-19T07:22:59.580Z,101386.94
2023-04-19T07:25:26.518Z,101387.00
2023-04-19T07:27:54.604Z,101376.16
2023-04-19T07:30:21.355Z,101379.09
2023-04-19T07:32:48.416Z,101382.88
2023-04-19T07:35:15.022Z,101388.09
2023-04-19T07:37:42.706Z,101385.22
2023-04-19T07:40:09.893Z,101390.41
2023-04-19T07:42:36.533Z,101392.38
2023-04-19T07:45:03.283Z,101392.97
2023-04-19T07:47:29.860Z,101387.16
2023-04-19T07:49:56.507Z,101384.91
2023-04-19T07:52:23.030Z,101372.91
2023-04-19T07:54:49.701Z,101374.53
2023-04-19T07:57:16.282Z,101365.94
2023-04-19T07:59:42.813Z,101363.84
2023-04-19T08:02:09.362Z,101366.13
2023-04-19T08:04:37.458Z,101384.88
2023-04-19T08:07:04.863Z,101374.47
2023-04-19T08:09:33.988Z,101382.38
2023-04-19T08:12:01.362Z,101385.88
2023-04-19T08:14:37.512Z,101390.38
2023-04-19T08:17:23.946Z,101391.00
2023-04-19T08:19:53.347Z,101393.25
2023-04-19T08:22:21.594Z,101389.34
2023-04-19T08:24:54.338Z,101392.50
2023-04-19T08:27:21.761Z,101388.13
2023-04-19T08:29:48.543Z,101378.38
2023-04-19T08:32:15.041Z,101390.97
2023-04-19T08:34:41.653Z,101380.59
2023-04-19T08:37:08.137Z,101377.50
2023-04-19T08:39:35.222Z,101378.94
2023-04-19T08:42:24.625Z,101378.94
2023-04-19T08:45:13.714Z,101370.56
2023-04-19T08:47:58.622Z,101360.81
2023-04-19T08:50:33.525Z,101360.31
2023-04-19T08:53:20.204Z,101350.44
2023-04-19T08:58:28.834Z,101342.38
2023-04-19T09:01:12.793Z,101336.09
2023-04-19T09:04:00.348Z,101344.50
2023-04-19T09:06:29.850Z,101342.09
2023-04-19T09:09:28.756Z,101337.69
2023-04-19T09:12:00.447Z,101333.03
2023-04-19T09:14:28.572Z,101324.00
2023-04-19T09:17:13.094Z,101324.50
2023-04-19T09:19:47.817Z,101331.06
2023-04-19T09:22:14.871Z,101335.94
2023-04-19T09:27:12.352Z,101326.09
2023-04-19T09:29:39.052Z,101324.63
2023-04-19T09:32:06.129Z,101327.81
2023-04-19T09:34:32.991Z,101331.84
2023-04-19T09:37:20.832Z,101328.16
2023-04-19T09:39:59.280Z,101317.13
2023-04-19T09:43:05.288Z,101318.25
2023-04-19T09:45:45.800Z,101319.41
2023-04-19T09:48:13.233Z,101317.31
2023-04-19T09:51:04.622Z,101317.78
2023-04-19T09:53:34.474Z,101315.88
2023-04-19T09:56:02.988Z,101328.16
2023-04-19T10:01:13.411Z,101325.13
2023-04-19T10:03:44.535Z,101322.38
2023-04-19T10:06:31.705Z,101318.19
2023-04-19T10:09:06.401Z,101318.34
2023-04-19T10:11:38.599Z,101318.81
2023-04-19T10:14:07.666Z,101323.31
2023-04-19T10:16:35.860Z,101310.56
2023-04-19T10:19:12.289Z,101311.75
2023-04-19T10:21:41.337Z,101305.59
2023-04-19T10:24:09.783Z,101299.81
2023-04-19T10:27:11.210Z,101297.56
2023-04-19T10:30:07.528Z,101299.66
2023-04-19T10:32:39.406Z,101300.31
2023-04-19T10:35:10.050Z,101298.75
2023-04-19T10:37:40.869Z,101304.34
2023-04-19T10:40:08.644Z,101295.16
2023-04-19T10:43:13.264Z,101291.88
2023-04-19T10:45:39.955Z,101296.25
2023-04-19T10:48:06.650Z,101296.09
2023-04-19T10:50:58.702Z,101302.91
2023-04-19T10:53:54.195Z,101293.00
2023-04-19T10:56:42.595Z,101296.56
2023-04-19T10:59:15.800Z,101293.34
2023-04-19T11:01:44.853Z,101286.41
2023-04-19T11:04:16.870Z,101285.81
2023-04-19T11:06:55.335Z,101288.41
2023-04-19T11:09:27.830Z,101288.28
2023-04-19T11:11:58.582Z,101290.06
2023-04-19T11:14:25.547Z,101283.38
2023-04-19T11:16:52.090Z,101281.63
2023-04-19T11:19:20.312Z,101275.97
2023-04-19T11:21:47.660Z,101280.03
2023-04-19T11:24:18.463Z,101279.22
2023-04-19T11:26:46.183Z,101266.94
2023-04-19T11:29:14.441Z,101269.56
2023-04-19T11:31:44.152Z,101269.25
2023-04-19T11:34:10.684Z,101258.88
2023-04-19T11:36:47.802Z,101274.88
2023-04-19T11:39:14.358Z,101270.69
2023-04-19T11:41:40.952Z,101270.69
2023-04-19T11:44:20.094Z,101276.53
2023-04-19T11:47:02.708Z,101269.56
2023-04-19T11:49:31.067Z,101259.34
2023-04-19T11:52:05.504Z,101269.22
2023-04-19T11:54:33.034Z,101271.97
2023-04-19T11:57:04.928Z,101261.78
2023-04-19T11:59:32.817Z,101266.81
2023-04-19T12:02:11.269Z,101270.19
2023-04-19T12:04:39.071Z,101266.16
2023-04-19T12:07:06.973Z,101264.19
2023-04-19T12:09:35.830Z,101263.19
2023-04-19T12:12:03.125Z,101266.59
2023-04-19T12:14:30.501Z,101258.97
2023-04-19T12:17:11.924Z,101262.50
2023-04-19T12:19:44.402Z,101264.16
2023-04-19T12:22:22.035Z,101270.63
2023-04-19T12:24:51.696Z,101259.44
2023-04-19T12:27:18.368Z,101262.34
2023-04-19T12:29:44.958Z,101252.97
2023-04-19T12:32:11.607Z,101255.22
2023-04-19T12:34:38.029Z,101258.13
2023-04-19T12:37:04.566Z,101249.88
2023-04-19T12:39:31.080Z,101241.59
2023-04-19T12:41:57.604Z,101238.03
2023-04-19T12:44:24.280Z,101235.91
2023-04-19T12:46:50.773Z,101236.72
2023-04-19T12:49:20.365Z,101230.50
2023-04-19T12:51:47.606Z,101230.72
2023-04-19T12:54:15.380Z,101234.56
2023-04-19T12:56:41.908Z,101230.00
2023-04-19T12:59:08.393Z,101233.53
2023-04-19T13:01:34.987Z,101232.50
2023-04-19T13:04:02.073Z,101234.69
2023-04-19T13:06:28.715Z,101233.50
2023-04-19T13:08:55.293Z,101231.44
2023-04-19T13:11:23.478Z,101232.44
2023-04-19T13:13:51.736Z,101227.66
2023-04-19T13:16:18.659Z,101220.59
2023-04-19T13:18:45.490Z,101213.91
2023-04-19T13:21:12.081Z,101215.22
2023-04-19T13:23:38.884Z,101221.22
2023-04-19T13:26:06.132Z,101220.28
2023-04-19T13:28:35.628Z,101217.59
2023-04-19T13:31:03.695Z,101220.47
2023-04-19T13:33:30.183Z,101214.44
2023-04-19T13:35:56.750Z,101211.03
2023-04-19T13:38:23.832Z,101210.31
2023-04-19T13:40:50.827Z,101210.84
2023-04-19T13:43:17.468Z,101205.63
2023-04-19T13:45:43.953Z,101203.66
2023-04-19T13:48:10.591Z,101199.47
2023-04-19T13:50:37.352Z,101195.84
2023-04-19T13:53:03.907Z,101200.09
2023-04-19T13:55:30.458Z,101197.28
2023-04-19T13:57:57.038Z,101197.28
2023-04-19T14:00:24.590Z,101197.56
2023-04-19T14:02:52.631Z,101194.81
2023-04-19T14:05:19.445Z,101196.75
2023-04-19T14:07:46.461Z,101197.41
2023-04-19T14:10:13.002Z,101195.28
2023-04-19T14:12:39.475Z,101203.41
2023-04-19T14:15:06.394Z,101195.44
2023-04-19T14:17:32.865Z,101200.47
2023-04-19T14:20:01.750Z,101199.91
2023-04-19T14:22:28.337Z,101198.41
2023-04-19T14:24:54.960Z,101194.00
2023-04-19T14:27:21.667Z,101192.34
2023-04-19T14:29:48.175Z,101193.41
2023-04-19T14:34:45.875Z,101191.66
2023-04-19T14:37:12.416Z,101195.84
2023-04-19T14:39:38.931Z,101191.00
2023-04-19T14:42:05.618Z,101196.31
2023-04-19T14:44:32.107Z,101197.59
2023-04-19T14:46:58.637Z,101193.53
2023-04-19T14:49:25.107Z,101191.03
2023-04-19T14:51:52.372Z,101195.19
2023-04-19T14:54:18.838Z,101194.91
2023-04-19T14:56:45.422Z,101193.13
2023-04-19T14:59:11.881Z,101198.22
2023-04-19T15:01:38.448Z,101197.88
2023-04-19T15:04:05.296Z,101200.09
2023-04-19T15:06:32.318Z,101203.22
2023-04-19T15:08:58.784Z,101201.41
2023-04-19T15:11:25.368Z,101201.97
2023-04-19T15:13:51.956Z,101207.25
2023-04-19T15:16:18.779Z,101206.63
2023-04-19T15:18:45.633Z,101206.50
2023-04-19T15:21:12.088Z,101206.31
2023-04-19T15:23:38.738Z,101207.63
2023-04-19T15:26:05.316Z,101206.13
2023-04-19T15:28:35.250Z,101205.31
2023-04-19T15:31:04.198Z,101207.09
2023-04-19T15:33:31.115Z,101206.25
2023-04-19T15:35:58.496Z,101199.34
2023-04-19T15:38:27.648Z,101200.19
2023-04-19T15:40:55.756Z,101199.47
2023-04-19T15:43:23.611Z,101197.59
2023-04-19T15:45:50.656Z,101201.47
2023-04-19T15:48:17.511Z,101193.84
2023-04-19T15:50:44.366Z,101197.00
2023-04-19T15:53:11.243Z,101198.94
2023-04-19T15:55:38.926Z,101200.75
2023-04-19T15:58:06.323Z,101199.50
2023-04-19T16:00:34.208Z,101197.41
2023-04-19T16:03:00.851Z,101200.09
2023-04-19T16:05:27.544Z,101204.84
2023-04-19T16:08:08.237Z,101211.25
2023-04-19T16:10:35.020Z,101207.38
2023-04-19T16:13:03.031Z,101209.41
2023-04-19T16:15:29.953Z,101210.50
2023-04-19T16:17:56.494Z,101216.88
2023-04-19T16:20:23.080Z,101218.09
2023-04-19T16:22:49.962Z,101227.28
2023-04-19T16:25:17.163Z,101223.69
2023-04-19T16:27:45.923Z,101217.84
2023-04-19T16:30:14.510Z,101231.81
2023-04-19T16:32:41.805Z,101233.94
2023-04-19T16:35:09.356Z,101228.88
2023-04-19T16:37:36.036Z,101227.28
2023-04-19T16:40:08.039Z,101220.97
2023-04-19T16:42:35.383Z,101223.38
2023-04-19T16:45:02.172Z,101227.16
2023-04-19T16:47:30.192Z,101232.50
2023-04-19T16:50:00.634Z,101227.94
2023-04-19T16:52:28.552Z,101232.84
2023-04-19T16:54:55.194Z,101230.13
2023-04-19T16:57:23.161Z,101236.16
2023-04-19T16:59:50.361Z,101238.75
2023-04-19T17:02:17.305Z,101244.22
2023-04-19T17:04:44.262Z,101247.59
2023-04-19T17:07:11.612Z,101247.13
2023-04-19T17:09:38.114Z,101248.44
2023-04-19T17:12:05.165Z,101240.63
2023-04-19T17:14:34.546Z,101248.06
2023-04-19T17:17:01.230Z,101251.50
2023-04-19T17:19:27.834Z,101243.03
2023-04-19T17:21:54.530Z,101242.22
2023-04-19T17:24:21.094Z,101256.63
2023-04-19T17:26:47.800Z,101259.06
2023-04-19T17:29:14.270Z,101260.69
2023-04-19T17:31:40.769Z,101255.78
2023-04-19T17:34:07.344Z,101260.44
2023-04-19T17:36:33.850Z,101250.06
2023-04-19T17:39:00.417Z,101254.00
2023-04-19T17:41:27.450Z,101256.88
2023-04-19T17:43:54.019Z,101257.53
2023-04-19T17:46:22.231Z,101258.03
2023-04-19T17:48:48.810Z,101260.78
2023-04-19T17:51:15.377Z,101269.59
2023-04-19T17:53:41.881Z,101269.94
2023-04-19T17:56:08.439Z,101268.94
2023-04-19T17:58:36.457Z,101275.91
2023-04-19T18:01:03.537Z,101280.16
2023-04-19T18:03:30.932Z,101285.00
2023-04-19T18:05:57.629Z,101291.78
2023-04-19T18:08:24.411Z,101285.81
2023-04-19T18:10:51.054Z,101296.66
2023-04-19T18:13:17.550Z,101302.31
2023-04-19T18:15:44.043Z,101303.94
2023-04-19T18:18:10.630Z,101304.28
2023-04-19T18:20:37.436Z,101309.31
2023-04-19T18:23:04.114Z,101319.53
2023-04-19T18:25:30.663Z,101313.69
2023-04-19T18:27:57.367Z,101318.34
2023-04-19T18:30:23.873Z,101307.00
2023-04-19T18:32:50.533Z,101313.69
2023-04-19T18:35:17.127Z,101310.91
2023-04-19T18:37:44.029Z,101316.09
2023-04-19T18:40:11.304Z,101315.81
2023-04-19T18:42:37.790Z,101314.84
2023-04-19T18:45:04.716Z,101314.53
2023-04-19T18:47:31.571Z,101321.06
2023-04-19T18:50:05.380Z,101322.84
2023-04-19T18:52:35.665Z,101327.56
2023-04-19T18:55:03.077Z,101321.72
2023-04-19T18:57:34.180Z,101327.28
2023-04-19T19:00:01.874Z,101322.38
2023-04-19T19:02:34.289Z,101323.19
2023-04-19T19:05:02.307Z,101315.28
2023-04-19T19:07:36.807Z,101324.19
2023-04-19T19:10:16.753Z,101330.03
2023-04-19T19:12:46.134Z,101333.28
2023-04-19T19:15:13.749Z,101325.66
2023-04-19T19:17:40.752Z,101339.97
2023-04-19T19:20:08.096Z,101335.75
2023-04-19T19:22:35.178Z,101336.72
2023-04-19T19:25:01.776Z,101335.91
2023-04-19T19:27:28.340Z,101341.44
2023-04-19T19:29:55.265Z,101341.44
2023-04-19T19:32:22.036Z,101339.00
2023-04-19T19:37:19.124Z,101345.50
2023-04-19T19:39:46.627Z,101350.69
2023-04-19T19:42:16.684Z,101358.50
2023-04-19T19:44:43.512Z,101360.31
2023-04-19T19:47:10.996Z,101357.88
2023-04-19T19:52:07.454Z,101361.72
2023-04-19T19:54:34.110Z,101368.88
2023-04-19T19:57:56.568Z,101361.56
2023-04-19T19:59:52.709Z,101369.53
2023-04-19T20:02:26.648Z,101365.78
2023-04-19T20:04:53.487Z,101362.56
2023-04-19T20:09:50.928Z,101358.50
2023-04-19T20:12:17.568Z,101366.44
2023-04-19T20:14:44.099Z,101367.44
2023-04-19T20:17:10.575Z,101367.63
2023-04-19T20:19:37.437Z,101366.78
2023-04-19T20:22:04.484Z,101366.63
2023-04-19T20:24:31.835Z,101362.41
2023-04-19T20:26:58.327Z,101362.09
2023-04-19T20:29:24.966Z,101362.56
2023-04-19T20:31:51.475Z,101354.59
2023-04-19T20:34:18.246Z,101361.41
2023-04-19T20:36:46.923Z,101361.25
2023-04-19T20:39:13.865Z,101354.06
2023-04-19T20:41:40.702Z,101358.78
2023-04-19T20:44:07.507Z,101360.38
2023-04-19T20:46:36.910Z,101352.59
2023-04-19T20:49:03.361Z,101362.81
2023-04-19T20:51:29.878Z,101356.47
2023-04-19T20:53:56.373Z,101359.72
2023-04-19T20:56:23.121Z,101361.34
2023-04-19T20:58:49.834Z,101357.44
2023-04-19T21:01:17.493Z,101352.22
2023-04-19T21:03:44.852Z,101350.91
2023-04-19T21:06:12.192Z,101353.19
2023-04-19T21:08:38.932Z,101356.78
2023-04-19T21:11:05.500Z,101363.28
2023-04-19T21:13:32.680Z,101352.44
2023-04-19T21:15:59.363Z,101362.19
2023-04-19T21:18:27.717Z,101367.41
2023-04-19T21:20:54.222Z,101366.75
2023-04-19T21:23:20.768Z,101365.94
2023-04-19T21:25:47.289Z,101357.78
2023-04-19T21:28:13.864Z,101356.47
2023-04-19T21:30:43.250Z,101347.69
2023-04-19T21:33:10.218Z,101342.97
2023-04-19T21:35:36.927Z,101347.22
2023-04-19T21:38:03.518Z,101351.06
2023-04-19T21:40:30.173Z,101357.44
2023-04-19T21:42:57.055Z,101366.19
2023-04-19T21:45:24.115Z,101362.16
2023-04-19T21:47:51.166Z,101359.56
2023-04-19T21:50:17.891Z,101360.19
2023-04-19T21:52:44.432Z,101355.66
2023-04-19T21:55:10.984Z,101348.47
2023-04-19T21:57:38.378Z,101358.06
2023-04-19T22:00:06.448Z,101357.72
2023-04-19T22:02:33.030Z,101352.06
2023-04-19T22:05:00.330Z,101348.19
2023-04-19T22:07:30.594Z,101342.97
2023-04-19T22:09:58.130Z,101351.75
2023-04-19T22:12:24.760Z,101351.75
2023-04-19T22:14:51.381Z,101347.88
2023-04-19T22:17:21.427Z,101343.84
2023-04-19T22:19:48.530Z,101350.00
2023-04-19T22:22:15.203Z,101340.59
2023-04-19T22:24:56.103Z,101341.25
2023-04-19T22:27:24.534Z,101345.28
2023-04-19T22:29:51.054Z,101339.13
2023-04-19T22:32:17.630Z,101345.94
2023-04-19T22:34:44.180Z,101340.38
2023-04-19T22:37:10.865Z,101340.06
2023-04-19T22:39:37.474Z,101342.50
2023-04-19T22:42:04.243Z,101341.50
2023-04-19T22:44:30.893Z,101335.66
2023-04-19T22:46:58.298Z,101336.31
2023-04-19T22:49:24.926Z,101335.16
2023-04-19T22:51:51.449Z,101333.03
2023-04-19T22:54:17.930Z,101331.22
2023-04-19T22:56:44.414Z,101328.13
2023-04-19T22:59:11.138Z,101334.47
2023-04-19T23:01:37.720Z,101323.44
2023-04-19T23:04:04.575Z,101326.03
2023-04-19T23:06:32.425Z,101334.00
2023-04-19T23:09:00.740Z,101335.28
2023-04-19T23:11:29.938Z,101344.50
2023-04-19T23:13:56.481Z,101335.75
2023-04-19T23:16:24.412Z,101335.59
2023-04-19T23:18:50.912Z,101340.78
2023-04-19T23:21:17.449Z,101338.19
2023-04-19T23:23:43.905Z,101329.56
2023-04-19T23:26:10.353Z,101340.13
2023-04-19T23:28:36.854Z,101336.72
2023-04-19T23:31:03.325Z,101335.75
2023-04-19T23:33:29.869Z,101339.13
2023-04-19T23:35:56.294Z,101339.00
2023-04-19T23:38:22.800Z,101341.59
2023-04-19T23:40:49.256Z,101345.78
2023-04-19T23:43:15.724Z,101337.19
2023-04-19T23:45:42.149Z,101332.00
2023-04-19T23:48:08.661Z,101332.97
2023-04-19T23:50:35.209Z,101331.34
2023-04-19T23:53:03.155Z,101327.97
2023-04-19T23:55:29.816Z,101324.72
2023-04-19T23:57:56.242Z,101319.88
